Terminal Aerodrome Forecast
Issued by NWS

Home | Current Version | Previous Version | Text Only | Print | Product List | Glossary On
Versions: 1 2 3 4 5 6 7 8 9 10 11 12 13 14 15 16 17 18 19
000
FTUS42 KFFC 090525
TAFPDK
TAF
KPDK 090525Z 0906/1006 00000KT P6SM FEW250
     FM091200 20006KT P6SM FEW250
     FM091600 21013G22KT P6SM FEW050 SCT250
     FM100000 21009KT P6SM SCT100 SCT250
     FM100500 23008KT P6SM VCSH SCT040 BKN100=

USA.gov is the U.S. government's official web portal to all federal, state and local government web resources and services.